sensor_id;sensor_type;location;lat;lon;timestamp;P1;P2;P0
57049;PMS7003;42935;50.966;16.992;2022-11-03T00:01:49;21;17;11
57049;PMS7003;42935;50.966;16.992;2022-11-03T00:05:29;21;16;11
57049;PMS7003;42935;50.966;16.992;2022-11-03T00:09:20;22;15;12
57049;PMS7003;42935;50.966;16.992;2022-11-03T00:12:32;19;17;12
57049;PMS7003;42935;50.966;16.992;2022-11-03T00:16:13;20;14;10
57049;PMS7003;42935;50.966;16.992;2022-11-03T00:19:57;25;16;12
57049;PMS7003;42935;50.966;16.992;2022-11-03T00:23:38;23;18;12
57049;PMS7003;42935;50.966;16.992;2022-11-03T00:27:20;26;17;11
57049;PMS7003;42935;50.966;16.992;2022-11-03T00:31:00;23;18;13
57049;PMS7003;42935;50.966;16.992;2022-11-03T00:34:47;22;16;11
57049;PMS7003;42935;50.966;16.992;2022-11-03T00:38:28;23;21;13
57049;PMS7003;42935;50.966;16.992;2022-11-03T00:42:09;18;15;11
57049;PMS7003;42935;50.966;16.992;2022-11-03T00:45:49;22;16;11
57049;PMS7003;42935;50.966;16.992;2022-11-03T00:49:34;23;17;12
57049;PMS7003;42935;50.966;16.992;2022-11-03T00:53:14;23;17;12
57049;PMS7003;42935;50.966;16.992;2022-11-03T00:56:53;21;17;12
57049;PMS7003;42935;50.966;16.992;2022-11-03T01:00:34;20;15;10
57049;PMS7003;42935;50.966;16.992;2022-11-03T01:04:15;18;16;11
57049;PMS7003;42935;50.966;16.992;2022-11-03T01:08:04;18;16;12
57049;PMS7003;42935;50.966;16.992;2022-11-03T01:15:33;18;15;12
57049;PMS7003;42935;50.966;16.992;2022-11-03T01:18:54;20;18;11
57049;PMS7003;42935;50.966;16.992;2022-11-03T01:22:34;22;18;13
57049;PMS7003;42935;50.966;16.992;2022-11-03T01:25:45;20;15;11
57049;PMS7003;42935;50.966;16.992;2022-11-03T01:29:23;28;18;14
57049;PMS7003;42935;50.966;16.992;2022-11-03T01:33:03;25;19;13
57049;PMS7003;42935;50.966;16.992;2022-11-03T01:36:49;27;19;12
57049;PMS7003;42935;50.966;16.992;2022-11-03T01:40:30;24;19;12
57049;PMS7003;42935;50.966;16.992;2022-11-03T01:48:00;32;23;14
57049;PMS7003;42935;50.966;16.992;2022-11-03T01:51:42;27;20;12
57049;PMS7003;42935;50.966;16.992;2022-11-03T01:55:06;26;18;13
57049;PMS7003;42935;50.966;16.992;2022-11-03T01:58:53;24;18;12
57049;PMS7003;42935;50.966;16.992;2022-11-03T02:02:35;24;19;13
57049;PMS7003;42935;50.966;16.992;2022-11-03T02:05:47;25;18;12
57049;PMS7003;42935;50.966;16.992;2022-11-03T02:09:27;24;17;13
57049;PMS7003;42935;50.966;16.992;2022-11-03T02:12:43;19;17;12
57049;PMS7003;42935;50.966;16.992;2022-11-03T02:16:28;25;20;13
57049;PMS7003;42935;50.966;16.992;2022-11-03T02:19:43;19;18;12
57049;PMS7003;42935;50.966;16.992;2022-11-03T02:23:31;22;17;12
57049;PMS7003;42935;50.966;16.992;2022-11-03T02:27:16;18;16;12
57049;PMS7003;42935;50.966;16.992;2022-11-03T02:34:22;23;15;10
57049;PMS7003;42935;50.966;16.992;2022-11-03T02:38:13;22;15;10
57049;PMS7003;42935;50.966;16.992;2022-11-03T02:41:57;16;15;11
57049;PMS7003;42935;50.966;16.992;2022-11-03T02:45:14;20;15;11
57049;PMS7003;42935;50.966;16.992;2022-11-03T02:48:58;19;15;9
57049;PMS7003;42935;50.966;16.992;2022-11-03T02:56:28;16;13;9
57049;PMS7003;42935;50.966;16.992;2022-11-03T03:00:12;20;15;10
57049;PMS7003;42935;50.966;16.992;2022-11-03T03:03:54;17;12;10
57049;PMS7003;42935;50.966;16.992;2022-11-03T03:07:42;13;13;9
57049;PMS7003;42935;50.966;16.992;2022-11-03T03:10:53;15;12;9
57049;PMS7003;42935;50.966;16.992;2022-11-03T03:14:09;18;15;11
57049;PMS7003;42935;50.966;16.992;2022-11-03T03:21:12;17;15;11
57049;PMS7003;42935;50.966;16.992;2022-11-03T03:32:11;19;15;10
57049;PMS7003;42935;50.966;16.992;2022-11-03T03:35:30;20;15;8
57049;PMS7003;42935;50.966;16.992;2022-11-03T03:39:13;23;16;10
57049;PMS7003;42935;50.966;16.992;2022-11-03T03:42:56;21;12;9
57049;PMS7003;42935;50.966;16.992;2022-11-03T03:46:06;18;13;10
57049;PMS7003;42935;50.966;16.992;2022-11-03T03:49:49;16;12;8
57049;PMS7003;42935;50.966;16.992;2022-11-03T03:53:26;17;12;9
57049;PMS7003;42935;50.966;16.992;2022-11-03T03:57:13;24;14;9
57049;PMS7003;42935;50.966;16.992;2022-11-03T04:00:55;12;11;9
57049;PMS7003;42935;50.966;16.992;2022-11-03T04:04:36;14;10;7
57049;PMS7003;42935;50.966;16.992;2022-11-03T04:07:46;12;10;7
57049;PMS7003;42935;50.966;16.992;2022-11-03T04:11:26;15;11;9
57049;PMS7003;42935;50.966;16.992;2022-11-03T04:15:17;14;12;7
57049;PMS7003;42935;50.966;16.992;2022-11-03T04:19:11;14;10;7
57049;PMS7003;42935;50.966;16.992;2022-11-03T04:22:29;10;7;6
57049;PMS7003;42935;50.966;16.992;2022-11-03T04:25:41;11;10;7
57049;PMS7003;42935;50.966;16.992;2022-11-03T04:29:26;14;12;8
57049;PMS7003;42935;50.966;16.992;2022-11-03T04:33:14;13;9;6
57049;PMS7003;42935;50.966;16.992;2022-11-03T04:36:52;10;9;7
57049;PMS7003;42935;50.966;16.992;2022-11-03T04:40:32;13;9;6
57049;PMS7003;42935;50.966;16.992;2022-11-03T04:43:42;11;9;6
57049;PMS7003;42935;50.966;16.992;2022-11-03T04:47:24;15;8;7
57049;PMS7003;42935;50.966;16.992;2022-11-03T04:54:51;13;11;7
57049;PMS7003;42935;50.966;16.992;2022-11-03T04:58:32;13;9;7
57049;PMS7003;42935;50.966;16.992;2022-11-03T05:02:16;14;10;7
57049;PMS7003;42935;50.966;16.992;2022-11-03T05:06:00;14;11;8
57049;PMS7003;42935;50.966;16.992;2022-11-03T05:13:14;13;11;7
57049;PMS7003;42935;50.966;16.992;2022-11-03T05:16:26;16;11;8
57049;PMS7003;42935;50.966;16.992;2022-11-03T05:20:08;11;9;7
57049;PMS7003;42935;50.966;16.992;2022-11-03T05:24:00;12;9;6
57049;PMS7003;42935;50.966;16.992;2022-11-03T05:27:41;14;9;7
57049;PMS7003;42935;50.966;16.992;2022-11-03T05:30:56;15;10;7
57049;PMS7003;42935;50.966;16.992;2022-11-03T05:34:57;15;12;8
57049;PMS7003;42935;50.966;16.992;2022-11-03T05:37:56;16;10;6
57049;PMS7003;42935;50.966;16.992;2022-11-03T05:41:36;14;10;7
57049;PMS7003;42935;50.966;16.992;2022-11-03T05:49:04;21;17;12
57049;PMS7003;42935;50.966;16.992;2022-11-03T05:52:44;20;15;12
57049;PMS7003;42935;50.966;16.992;2022-11-03T05:56:29;19;15;11
57049;PMS7003;42935;50.966;16.992;2022-11-03T05:59:41;19;15;10
57049;PMS7003;42935;50.966;16.992;2022-11-03T06:03:27;16;14;11
57049;PMS7003;42935;50.966;16.992;2022-11-03T06:06:43;19;16;10
57049;PMS7003;42935;50.966;16.992;2022-11-03T06:10:30;22;20;11
57049;PMS7003;42935;50.966;16.992;2022-11-03T06:17:31;24;17;12
57049;PMS7003;42935;50.966;16.992;2022-11-03T06:21:12;20;17;12
57049;PMS7003;42935;50.966;16.992;2022-11-03T06:24:27;24;17;11
57049;PMS7003;42935;50.966;16.992;2022-11-03T06:28:14;18;14;10
57049;PMS7003;42935;50.966;16.992;2022-11-03T06:31:29;24;18;10
57049;PMS7003;42935;50.966;16.992;2022-11-03T06:35:07;17;13;10
57049;PMS7003;42935;50.966;16.992;2022-11-03T06:39:01;22;15;11
57049;PMS7003;42935;50.966;16.992;2022-11-03T06:42:15;24;20;14
57049;PMS7003;42935;50.966;16.992;2022-11-03T06:45:33;25;21;15
57049;PMS7003;42935;50.966;16.992;2022-11-03T06:48:43;26;23;15
57049;PMS7003;42935;50.966;16.992;2022-11-03T06:52:31;26;20;14
57049;PMS7003;42935;50.966;16.992;2022-11-03T06:55:42;23;20;14
57049;PMS7003;42935;50.966;16.992;2022-11-03T06:58:55;25;20;14
57049;PMS7003;42935;50.966;16.992;2022-11-03T07:02:44;26;19;14
57049;PMS7003;42935;50.966;16.992;2022-11-03T07:05:55;23;17;12
57049;PMS7003;42935;50.966;16.992;2022-11-03T07:09:36;20;15;11
57049;PMS7003;42935;50.966;16.992;2022-11-03T07:13:19;26;19;14
57049;PMS7003;42935;50.966;16.992;2022-11-03T07:16:53;23;20;12
57049;PMS7003;42935;50.966;16.992;2022-11-03T07:19:53;21;17;13
57049;PMS7003;42935;50.966;16.992;2022-11-03T07:23:30;23;19;13
57049;PMS7003;42935;50.966;16.992;2022-11-03T07:31:09;24;20;13
57049;PMS7003;42935;50.966;16.992;2022-11-03T07:35:00;29;24;13
57049;PMS7003;42935;50.966;16.992;2022-11-03T07:38:19;24;19;13
57049;PMS7003;42935;50.966;16.992;2022-11-03T07:41:35;22;18;12
57049;PMS7003;42935;50.966;16.992;2022-11-03T07:44:41;27;17;13
57049;PMS7003;42935;50.966;16.992;2022-11-03T07:47:47;22;16;11
57049;PMS7003;42935;50.966;16.992;2022-11-03T07:51:28;24;17;12
57049;PMS7003;42935;50.966;16.992;2022-11-03T07:55:10;22;19;13
57049;PMS7003;42935;50.966;16.992;2022-11-03T07:59:17;21;17;13
57049;PMS7003;42935;50.966;16.992;2022-11-03T08:02:50;22;19;13
57049;PMS7003;42935;50.966;16.992;2022-11-03T08:06:32;22;20;14
57049;PMS7003;42935;50.966;16.992;2022-11-03T08:10:20;24;19;12
57049;PMS7003;42935;50.966;16.992;2022-11-03T08:14:00;28;21;13
57049;PMS7003;42935;50.966;16.992;2022-11-03T08:17:37;24;20;14
57049;PMS7003;42935;50.966;16.992;2022-11-03T08:21:17;23;18;13
57049;PMS7003;42935;50.966;16.992;2022-11-03T08:24:27;23;17;11
57049;PMS7003;42935;50.966;16.992;2022-11-03T08:28:05;30;23;16
57049;PMS7003;42935;50.966;16.992;2022-11-03T08:31:13;27;22;15
57049;PMS7003;42935;50.966;16.992;2022-11-03T08:34:26;29;24;15
57049;PMS7003;42935;50.966;16.992;2022-11-03T08:37:44;33;24;15
57049;PMS7003;42935;50.966;16.992;2022-11-03T08:41:23;22;20;14
57049;PMS7003;42935;50.966;16.992;2022-11-03T08:44:37;18;14;9
57049;PMS7003;42935;50.966;16.992;2022-11-03T08:48:21;15;11;8
57049;PMS7003;42935;50.966;16.992;2022-11-03T08:52:03;15;11;8
57049;PMS7003;42935;50.966;16.992;2022-11-03T08:55:09;15;10;7
57049;PMS7003;42935;50.966;16.992;2022-11-03T08:58:48;16;11;8
57049;PMS7003;42935;50.966;16.992;2022-11-03T09:02:27;11;10;8
57049;PMS7003;42935;50.966;16.992;2022-11-03T09:05:39;11;9;7
57049;PMS7003;42935;50.966;16.992;2022-11-03T09:08:51;16;12;10
57049;PMS7003;42935;50.966;16.992;2022-11-03T09:12:31;10;9;6
57049;PMS7003;42935;50.966;16.992;2022-11-03T09:16:10;15;11;8
57049;PMS7003;42935;50.966;16.992;2022-11-03T09:19:50;11;11;8
57049;PMS7003;42935;50.966;16.992;2022-11-03T09:23:00;14;10;8
57049;PMS7003;42935;50.966;16.992;2022-11-03T09:26:41;13;7;5
57049;PMS7003;42935;50.966;16.992;2022-11-03T09:29:49;7;6;4
57049;PMS7003;42935;50.966;16.992;2022-11-03T09:33:26;6;5;4
57049;PMS7003;42935;50.966;16.992;2022-11-03T09:36:36;8;6;4
57049;PMS7003;42935;50.966;16.992;2022-11-03T09:39:44;8;6;5
57049;PMS7003;42935;50.966;16.992;2022-11-03T09:43:25;7;7;5
57049;PMS7003;42935;50.966;16.992;2022-11-03T09:47:05;8;6;4
57049;PMS7003;42935;50.966;16.992;2022-11-03T09:50:49;6;6;5
57049;PMS7003;42935;50.966;16.992;2022-11-03T09:54:02;11;7;5
57049;PMS7003;42935;50.966;16.992;2022-11-03T09:57:43;7;5;4
57049;PMS7003;42935;50.966;16.992;2022-11-03T10:01:24;10;7;5
57049;PMS7003;42935;50.966;16.992;2022-11-03T10:04:29;9;5;4
57049;PMS7003;42935;50.966;16.992;2022-11-03T10:08:13;9;6;4
57049;PMS7003;42935;50.966;16.992;2022-11-03T10:12:00;11;6;4
57049;PMS7003;42935;50.966;16.992;2022-11-03T10:15:40;7;6;4
57049;PMS7003;42935;50.966;16.992;2022-11-03T10:19:22;8;6;5
57049;PMS7003;42935;50.966;16.992;2022-11-03T10:23:07;8;6;5
57049;PMS7003;42935;50.966;16.992;2022-11-03T10:26:48;6;6;4
57049;PMS7003;42935;50.966;16.992;2022-11-03T10:30:05;9;5;4
57049;PMS7003;42935;50.966;16.992;2022-11-03T10:37:30;6;5;4
57049;PMS7003;42935;50.966;16.992;2022-11-03T10:45:10;8;6;4
57049;PMS7003;42935;50.966;16.992;2022-11-03T10:52:17;9;4;4
57049;PMS7003;42935;50.966;16.992;2022-11-03T10:55:27;9;5;3
57049;PMS7003;42935;50.966;16.992;2022-11-03T10:58:37;8;5;4
57049;PMS7003;42935;50.966;16.992;2022-11-03T11:02:19;5;3;2
57049;PMS7003;42935;50.966;16.992;2022-11-03T11:05:36;8;4;3
57049;PMS7003;42935;50.966;16.992;2022-11-03T11:09:00;5;4;3
57049;PMS7003;42935;50.966;16.992;2022-11-03T11:12:20;5;4;3
57049;PMS7003;42935;50.966;16.992;2022-11-03T11:19:22;6;5;3
57049;PMS7003;42935;50.966;16.992;2022-11-03T11:26:53;7;5;3
57049;PMS7003;42935;50.966;16.992;2022-11-03T11:30:04;6;4;3
57049;PMS7003;42935;50.966;16.992;2022-11-03T11:33:49;6;5;4
57049;PMS7003;42935;50.966;16.992;2022-11-03T11:37:37;5;4;3
57049;PMS7003;42935;50.966;16.992;2022-11-03T11:41:17;7;5;4
57049;PMS7003;42935;50.966;16.992;2022-11-03T11:44:58;7;5;3
57049;PMS7003;42935;50.966;16.992;2022-11-03T11:48:40;8;5;3
57049;PMS7003;42935;50.966;16.992;2022-11-03T11:51:46;9;6;4
57049;PMS7003;42935;50.966;16.992;2022-11-03T11:54:56;5;5;3
57049;PMS7003;42935;50.966;16.992;2022-11-03T11:58:39;6;4;3
57049;PMS7003;42935;50.966;16.992;2022-11-03T12:02:24;6;5;4
57049;PMS7003;42935;50.966;16.992;2022-11-03T12:05:34;7;4;3
57049;PMS7003;42935;50.966;16.992;2022-11-03T12:08:39;6;4;3
57049;PMS7003;42935;50.966;16.992;2022-11-03T12:20:32;6;5;3
57049;PMS7003;42935;50.966;16.992;2022-11-03T12:27:19;5;4;3
57049;PMS7003;42935;50.966;16.992;2022-11-03T12:30:34;7;4;3
57049;PMS7003;42935;50.966;16.992;2022-11-03T12:34:14;6;5;3
57049;PMS7003;42935;50.966;16.992;2022-11-03T12:37:21;8;6;4
57049;PMS7003;42935;50.966;16.992;2022-11-03T12:40:58;9;6;5
57049;PMS7003;42935;50.966;16.992;2022-11-03T12:44:46;7;5;4
57049;PMS7003;42935;50.966;16.992;2022-11-03T12:48:28;8;5;4
57049;PMS7003;42935;50.966;16.992;2022-11-03T12:52:08;7;6;5
57049;PMS7003;42935;50.966;16.992;2022-11-03T12:55:17;6;5;4
57049;PMS7003;42935;50.966;16.992;2022-11-03T12:58:58;8;5;3
57049;PMS7003;42935;50.966;16.992;2022-11-03T13:02:37;8;5;4
57049;PMS7003;42935;50.966;16.992;2022-11-03T13:06:17;9;6;4
57049;PMS7003;42935;50.966;16.992;2022-11-03T13:09:57;6;6;5
57049;PMS7003;42935;50.966;16.992;2022-11-03T13:13:35;8;5;3
57049;PMS7003;42935;50.966;16.992;2022-11-03T13:16:46;6;4;3
57049;PMS7003;42935;50.966;16.992;2022-11-03T13:20:24;6;5;4
57049;PMS7003;42935;50.966;16.992;2022-11-03T13:24:03;6;5;4
57049;PMS7003;42935;50.966;16.992;2022-11-03T13:27:44;11;6;5
57049;PMS7003;42935;50.966;16.992;2022-11-03T13:31:08;10;7;5
57049;PMS7003;42935;50.966;16.992;2022-11-03T13:34:49;9;6;5
57049;PMS7003;42935;50.966;16.992;2022-11-03T13:38:26;9;6;5
57049;PMS7003;42935;50.966;16.992;2022-11-03T13:42:06;10;8;6
57049;PMS7003;42935;50.966;16.992;2022-11-03T13:45:46;11;7;5
57049;PMS7003;42935;50.966;16.992;2022-11-03T13:49:30;13;10;7
57049;PMS7003;42935;50.966;16.992;2022-11-03T13:52:38;10;7;5
57049;PMS7003;42935;50.966;16.992;2022-11-03T13:56:16;12;9;6
57049;PMS7003;42935;50.966;16.992;2022-11-03T13:59:26;18;13;9
57049;PMS7003;42935;50.966;16.992;2022-11-03T14:03:12;24;19;13
57049;PMS7003;42935;50.966;16.992;2022-11-03T14:06:55;17;15;11
57049;PMS7003;42935;50.966;16.992;2022-11-03T14:10:06;15;11;8
57049;PMS7003;42935;50.966;16.992;2022-11-03T14:13:14;13;12;9
57049;PMS7003;42935;50.966;16.992;2022-11-03T14:16:54;14;11;8
57049;PMS7003;42935;50.966;16.992;2022-11-03T14:20:07;14;10;6
57049;PMS7003;42935;50.966;16.992;2022-11-03T14:23:47;27;22;14
57049;PMS7003;42935;50.966;16.992;2022-11-03T14:26:57;27;21;15
57049;PMS7003;42935;50.966;16.992;2022-11-03T14:30:39;25;21;12
57049;PMS7003;42935;50.966;16.992;2022-11-03T14:33:49;21;18;10
57049;PMS7003;42935;50.966;16.992;2022-11-03T14:37:33;24;16;11
57049;PMS7003;42935;50.966;16.992;2022-11-03T14:41:13;21;16;11
57049;PMS7003;42935;50.966;16.992;2022-11-03T14:44:35;19;14;10
57049;PMS7003;42935;50.966;16.992;2022-11-03T14:48:16;19;15;11
57049;PMS7003;42935;50.966;16.992;2022-11-03T14:51:53;17;14;11
57049;PMS7003;42935;50.966;16.992;2022-11-03T14:55:04;21;18;13
57049;PMS7003;42935;50.966;16.992;2022-11-03T14:58:14;25;21;14
57049;PMS7003;42935;50.966;16.992;2022-11-03T15:01:55;22;17;13
57049;PMS7003;42935;50.966;16.992;2022-11-03T15:05:36;29;22;15
57049;PMS7003;42935;50.966;16.992;2022-11-03T15:08:50;27;21;14
57049;PMS7003;42935;50.966;16.992;2022-11-03T15:12:31;28;23;16
57049;PMS7003;42935;50.966;16.992;2022-11-03T15:15:40;36;27;16
57049;PMS7003;42935;50.966;16.992;2022-11-03T15:19:18;33;28;18
57049;PMS7003;42935;50.966;16.992;2022-11-03T15:23:03;43;33;22
57049;PMS7003;42935;50.966;16.992;2022-11-03T15:26:47;35;29;20
57049;PMS7003;42935;50.966;16.992;2022-11-03T15:30:27;35;27;18
57049;PMS7003;42935;50.966;16.992;2022-11-03T15:34:09;41;30;20
57049;PMS7003;42935;50.966;16.992;2022-11-03T15:37:16;35;29;19
57049;PMS7003;42935;50.966;16.992;2022-11-03T15:41:00;40;29;18
57049;PMS7003;42935;50.966;16.992;2022-11-03T15:44:55;27;23;17
57049;PMS7003;42935;50.966;16.992;2022-11-03T15:48:40;34;28;19
57049;PMS7003;42935;50.966;16.992;2022-11-03T15:52:28;58;43;27
57049;PMS7003;42935;50.966;16.992;2022-11-03T15:56:13;52;40;26
57049;PMS7003;42935;50.966;16.992;2022-11-03T15:59:50;39;29;21
57049;PMS7003;42935;50.966;16.992;2022-11-03T16:03:29;39;30;21
57049;PMS7003;42935;50.966;16.992;2022-11-03T16:07:12;40;31;20
57049;PMS7003;42935;50.966;16.992;2022-11-03T16:10:51;38;32;21
57049;PMS7003;42935;50.966;16.992;2022-11-03T16:14:39;57;45;29
57049;PMS7003;42935;50.966;16.992;2022-11-03T16:18:24;63;46;29
57049;PMS7003;42935;50.966;16.992;2022-11-03T16:21:41;53;42;26
57049;PMS7003;42935;50.966;16.992;2022-11-03T16:25:20;50;38;24
57049;PMS7003;42935;50.966;16.992;2022-11-03T16:28:35;46;37;23
57049;PMS7003;42935;50.966;16.992;2022-11-03T16:32:19;42;33;22
57049;PMS7003;42935;50.966;16.992;2022-11-03T16:35:58;56;41;26
57049;PMS7003;42935;50.966;16.992;2022-11-03T16:39:20;54;41;25
57049;PMS7003;42935;50.966;16.992;2022-11-03T16:43:05;52;37;23
57049;PMS7003;42935;50.966;16.992;2022-11-03T16:46:51;55;42;27
57049;PMS7003;42935;50.966;16.992;2022-11-03T16:50:31;46;36;23
57049;PMS7003;42935;50.966;16.992;2022-11-03T16:54:15;41;33;21
57049;PMS7003;42935;50.966;16.992;2022-11-03T16:57:26;34;29;19
57049;PMS7003;42935;50.966;16.992;2022-11-03T17:01:10;32;28;18
57049;PMS7003;42935;50.966;16.992;2022-11-03T17:04:56;36;28;19
57049;PMS7003;42935;50.966;16.992;2022-11-03T17:08:34;31;27;18
57049;PMS7003;42935;50.966;16.992;2022-11-03T17:12:17;33;30;19
57049;PMS7003;42935;50.966;16.992;2022-11-03T17:15:56;32;27;17
57049;PMS7003;42935;50.966;16.992;2022-11-03T17:19:36;30;26;17
57049;PMS7003;42935;50.966;16.992;2022-11-03T17:22:50;34;27;16
57049;PMS7003;42935;50.966;16.992;2022-11-03T17:26:32;35;29;18
57049;PMS7003;42935;50.966;16.992;2022-11-03T17:29:49;34;27;17
57049;PMS7003;42935;50.966;16.992;2022-11-03T17:33:07;34;29;19
57049;PMS7003;42935;50.966;16.992;2022-11-03T17:36:19;35;27;18
57049;PMS7003;42935;50.966;16.992;2022-11-03T17:44:10;40;31;20
57049;PMS7003;42935;50.966;16.992;2022-11-03T17:47:24;42;33;21
57049;PMS7003;42935;50.966;16.992;2022-11-03T17:51:07;50;39;25
57049;PMS7003;42935;50.966;16.992;2022-11-03T17:54:56;53;40;25
57049;PMS7003;42935;50.966;16.992;2022-11-03T17:58:36;51;39;25
57049;PMS7003;42935;50.966;16.992;2022-11-03T18:02:16;47;36;22
57049;PMS7003;42935;50.966;16.992;2022-11-03T18:05:35;50;36;23
57049;PMS7003;42935;50.966;16.992;2022-11-03T18:09:21;45;34;21
57049;PMS7003;42935;50.966;16.992;2022-11-03T18:13:07;47;36;23
57049;PMS7003;42935;50.966;16.992;2022-11-03T18:16:28;47;37;22
57049;PMS7003;42935;50.966;16.992;2022-11-03T18:27:54;45;32;21
57049;PMS7003;42935;50.966;16.992;2022-11-03T18:31:40;43;32;21
57049;PMS7003;42935;50.966;16.992;2022-11-03T18:35:25;44;32;21
57049;PMS7003;42935;50.966;16.992;2022-11-03T18:38:39;43;36;23
57049;PMS7003;42935;50.966;16.992;2022-11-03T18:42:23;47;36;22
57049;PMS7003;42935;50.966;16.992;2022-11-03T18:46:02;45;34;22
57049;PMS7003;42935;50.966;16.992;2022-11-03T18:49:40;47;34;23
57049;PMS7003;42935;50.966;16.992;2022-11-03T18:53:24;54;38;24
57049;PMS7003;42935;50.966;16.992;2022-11-03T18:57:07;53;41;26
57049;PMS7003;42935;50.966;16.992;2022-11-03T19:00:49;52;37;24
57049;PMS7003;42935;50.966;16.992;2022-11-03T19:04:33;47;37;23
57049;PMS7003;42935;50.966;16.992;2022-11-03T19:07:44;44;33;23
57049;PMS7003;42935;50.966;16.992;2022-11-03T19:11:29;48;35;22
57049;PMS7003;42935;50.966;16.992;2022-11-03T19:19:03;46;36;23
57049;PMS7003;42935;50.966;16.992;2022-11-03T19:22:20;46;35;23
57049;PMS7003;42935;50.966;16.992;2022-11-03T19:26:04;53;39;24
57049;PMS7003;42935;50.966;16.992;2022-11-03T19:29:57;50;37;23
57049;PMS7003;42935;50.966;16.992;2022-11-03T19:33:43;51;38;25
57049;PMS7003;42935;50.966;16.992;2022-11-03T19:37:30;51;40;24
57049;PMS7003;42935;50.966;16.992;2022-11-03T19:41:15;51;36;23
57049;PMS7003;42935;50.966;16.992;2022-11-03T19:45:07;45;35;24
57049;PMS7003;42935;50.966;16.992;2022-11-03T19:48:55;49;37;24
57049;PMS7003;42935;50.966;16.992;2022-11-03T19:52:12;47;35;23
57049;PMS7003;42935;50.966;16.992;2022-11-03T19:55:57;46;35;22
57049;PMS7003;42935;50.966;16.992;2022-11-03T19:59:37;47;36;23
57049;PMS7003;42935;50.966;16.992;2022-11-03T20:03:21;45;35;22
57049;PMS7003;42935;50.966;16.992;2022-11-03T20:07:14;48;35;23
57049;PMS7003;42935;50.966;16.992;2022-11-03T20:10:27;46;36;23
57049;PMS7003;42935;50.966;16.992;2022-11-03T20:14:08;47;36;23
57049;PMS7003;42935;50.966;16.992;2022-11-03T20:17:58;50;36;23
57049;PMS7003;42935;50.966;16.992;2022-11-03T20:21:42;45;38;24
57049;PMS7003;42935;50.966;16.992;2022-11-03T20:25:28;39;34;22
57049;PMS7003;42935;50.966;16.992;2022-11-03T20:29:20;45;34;22
57049;PMS7003;42935;50.966;16.992;2022-11-03T20:32:46;47;37;22
57049;PMS7003;42935;50.966;16.992;2022-11-03T20:35:56;45;32;22
57049;PMS7003;42935;50.966;16.992;2022-11-03T20:39:40;43;33;22
57049;PMS7003;42935;50.966;16.992;2022-11-03T20:42:54;40;33;21
57049;PMS7003;42935;50.966;16.992;2022-11-03T20:46:41;43;35;22
57049;PMS7003;42935;50.966;16.992;2022-11-03T20:50:20;42;31;20
57049;PMS7003;42935;50.966;16.992;2022-11-03T20:53:31;42;31;19
57049;PMS7003;42935;50.966;16.992;2022-11-03T20:57:20;42;32;21
57049;PMS7003;42935;50.966;16.992;2022-11-03T21:00:31;39;31;21
57049;PMS7003;42935;50.966;16.992;2022-11-03T21:04:13;43;33;20
57049;PMS7003;42935;50.966;16.992;2022-11-03T21:07:59;46;35;22
57049;PMS7003;42935;50.966;16.992;2022-11-03T21:11:38;42;33;22
57049;PMS7003;42935;50.966;16.992;2022-11-03T21:15:21;46;36;23
57049;PMS7003;42935;50.966;16.992;2022-11-03T21:19:20;49;36;23
57049;PMS7003;42935;50.966;16.992;2022-11-03T21:26:33;43;34;20
57049;PMS7003;42935;50.966;16.992;2022-11-03T21:30:18;49;37;24
57049;PMS7003;42935;50.966;16.992;2022-11-03T21:33:56;47;33;24
57049;PMS7003;42935;50.966;16.992;2022-11-03T21:37:14;45;35;22
57049;PMS7003;42935;50.966;16.992;2022-11-03T21:40:24;45;31;21
57049;PMS7003;42935;50.966;16.992;2022-11-03T21:44:03;40;32;22
57049;PMS7003;42935;50.966;16.992;2022-11-03T21:47:26;43;34;23
57049;PMS7003;42935;50.966;16.992;2022-11-03T21:50:40;47;34;23
57049;PMS7003;42935;50.966;16.992;2022-11-03T21:53:46;48;36;24
57049;PMS7003;42935;50.966;16.992;2022-11-03T21:57:24;44;33;23
57049;PMS7003;42935;50.966;16.992;2022-11-03T22:01:03;43;33;22
57049;PMS7003;42935;50.966;16.992;2022-11-03T22:04:47;47;36;23
57049;PMS7003;42935;50.966;16.992;2022-11-03T22:08:25;47;36;24
57049;PMS7003;42935;50.966;16.992;2022-11-03T22:12:09;47;35;23
57049;PMS7003;42935;50.966;16.992;2022-11-03T22:15:22;48;35;23
57049;PMS7003;42935;50.966;16.992;2022-11-03T22:19:21;48;36;23
57049;PMS7003;42935;50.966;16.992;2022-11-03T22:23:11;45;33;23
57049;PMS7003;42935;50.966;16.992;2022-11-03T22:27:10;46;35;21
57049;PMS7003;42935;50.966;16.992;2022-11-03T22:30:21;47;36;23
57049;PMS7003;42935;50.966;16.992;2022-11-03T22:34:12;43;34;23
57049;PMS7003;42935;50.966;16.992;2022-11-03T22:38:07;44;34;22
57049;PMS7003;42935;50.966;16.992;2022-11-03T22:41:51;46;32;22
57049;PMS7003;42935;50.966;16.992;2022-11-03T22:45:43;49;37;23
57049;PMS7003;42935;50.966;16.992;2022-11-03T22:49:29;42;33;21
57049;PMS7003;42935;50.966;16.992;2022-11-03T22:53:17;47;37;23
57049;PMS7003;42935;50.966;16.992;2022-11-03T22:57:08;44;34;21
57049;PMS7003;42935;50.966;16.992;2022-11-03T23:00:48;46;35;23
57049;PMS7003;42935;50.966;16.992;2022-11-03T23:04:03;48;36;23
57049;PMS7003;42935;50.966;16.992;2022-11-03T23:07:10;45;34;22
57049;PMS7003;42935;50.966;16.992;2022-11-03T23:10:53;44;33;21
57049;PMS7003;42935;50.966;16.992;2022-11-03T23:14:34;46;35;22
57049;PMS7003;42935;50.966;16.992;2022-11-03T23:17:55;42;32;21
57049;PMS7003;42935;50.966;16.992;2022-11-03T23:21:55;49;36;23
57049;PMS7003;42935;50.966;16.992;2022-11-03T23:25:35;42;33;22
57049;PMS7003;42935;50.966;16.992;2022-11-03T23:28:51;43;34;23
57049;PMS7003;42935;50.966;16.992;2022-11-03T23:32:38;45;33;21
57049;PMS7003;42935;50.966;16.992;2022-11-03T23:36:21;48;36;22
57049;PMS7003;42935;50.966;16.992;2022-11-03T23:39:40;47;38;23
57049;PMS7003;42935;50.966;16.992;2022-11-03T23:42:57;48;36;23
57049;PMS7003;42935;50.966;16.992;2022-11-03T23:46:34;52;40;24
57049;PMS7003;42935;50.966;16.992;2022-11-03T23:50:29;47;36;23
57049;PMS7003;42935;50.966;16.992;2022-11-03T23:53:46;51;37;22
57049;PMS7003;42935;50.966;16.992;2022-11-03T23:57:24;44;33;23
